createdAt,value
2023-02-11T00:02:13.785Z,98991.50
2023-02-11T00:04:43.695Z,98991.31
2023-02-11T00:07:13.599Z,98985.08
2023-02-11T00:09:43.449Z,98991.45
2023-02-11T00:12:13.304Z,98994.24
2023-02-11T00:14:43.207Z,98994.30
2023-02-11T00:17:13.037Z,98993.55
2023-02-11T00:19:42.890Z,99001.56
2023-02-11T00:22:12.913Z,98993.67
2023-02-11T00:24:42.877Z,98997.46
2023-02-11T00:27:12.747Z,98994.69
2023-02-11T00:29:42.661Z,98998.19
2023-02-11T00:32:12.497Z,98998.73
2023-02-11T00:34:42.346Z,99000.31
2023-02-11T00:37:12.884Z,99002.77
2023-02-11T00:39:42.939Z,98996.15
2023-02-11T00:42:15.709Z,98997.23
2023-02-11T00:44:45.797Z,98995.03
2023-02-11T00:47:15.827Z,98991.38
2023-02-11T00:49:45.666Z,98991.38
2023-02-11T00:52:15.559Z,98998.76
2023-02-11T00:54:45.605Z,98996.27
2023-02-11T00:57:15.559Z,99002.25
2023-02-11T00:59:45.779Z,99005.78
2023-02-11T01:02:15.730Z,99002.44
2023-02-11T01:04:47.062Z,99008.98
2023-02-11T01:07:16.979Z,99012.48
2023-02-11T01:09:46.852Z,99008.92
2023-02-11T01:12:16.673Z,99008.28
2023-02-11T01:14:46.597Z,99015.34
2023-02-11T01:17:16.549Z,99013.39
2023-02-11T01:19:46.513Z,99014.70
2023-02-11T01:22:16.454Z,99022.58
2023-02-11T01:24:46.299Z,99019.63
2023-02-11T01:27:16.166Z,99030.92
2023-02-11T01:29:46.204Z,99023.10
2023-02-11T01:32:16.683Z,99023.10
2023-02-11T01:34:46.656Z,99031.70
2023-02-11T01:37:16.659Z,99032.81
2023-02-11T01:39:46.601Z,99033.42
2023-02-11T01:42:18.534Z,99029.92
2023-02-11T01:44:50.098Z,99034.09
2023-02-11T01:47:20.164Z,99029.73
2023-02-11T01:49:54.872Z,99030.95
2023-02-11T01:52:27.344Z,99032.92
2023-02-11T01:55:16.737Z,99030.25
2023-02-11T01:57:48.922Z,99023.98
2023-02-11T02:00:25.803Z,99029.52
2023-02-11T02:03:04.396Z,99027.68
2023-02-11T02:05:45.906Z,99029.66
2023-02-11T02:08:36.192Z,99028.57
2023-02-11T02:11:06.088Z,99028.41
2023-02-11T02:13:36.115Z,99036.69
2023-02-11T02:16:09.806Z,99035.92
2023-02-11T02:19:14.671Z,99021.70
2023-02-11T02:22:06.289Z,99019.44
2023-02-11T02:24:57.442Z,99018.55
2023-02-11T02:27:32.784Z,99018.48
2023-02-11T02:30:23.471Z,99016.23
2023-02-11T02:33:25.089Z,99018.90
2023-02-11T02:36:08.007Z,99030.89
2023-02-11T02:38:42.867Z,99029.23
2023-02-11T02:41:17.954Z,99023.98
2023-02-11T02:43:49.772Z,99030.00
2023-02-11T02:46:30.463Z,99036.55
2023-02-11T02:49:00.999Z,99043.61
2023-02-11T02:51:52.979Z,99040.05
2023-02-11T02:54:25.530Z,99043.86
2023-02-11T02:57:03.714Z,99040.20
2023-02-11T02:59:54.665Z,99043.73
2023-02-11T03:02:45.249Z,99044.49
2023-02-11T03:05:20.116Z,99042.83
2023-02-11T03:08:01.005Z,99046.33
2023-02-11T03:10:36.068Z,99044.61
2023-02-11T03:13:07.439Z,99040.73
2023-02-11T03:15:45.707Z,99046.95
2023-02-11T03:18:17.560Z,99033.05
2023-02-11T03:20:47.895Z,99041.73
2023-02-11T03:23:20.471Z,99051.06
2023-02-11T03:25:55.811Z,99049.76
2023-02-11T03:28:39.956Z,99055.30
2023-02-11T03:31:12.757Z,99054.53
2023-02-11T03:33:53.904Z,99059.25
2023-02-11T03:36:38.680Z,99055.44
2023-02-11T03:39:08.546Z,99062.87
2023-02-11T03:41:38.409Z,99059.67
2023-02-11T03:44:08.205Z,99057.54
2023-02-11T03:46:39.397Z,99055.09
2023-02-11T03:49:13.370Z,99058.72
2023-02-11T03:51:43.378Z,99050.80
2023-02-11T03:54:17.376Z,99054.14
2023-02-11T03:56:52.831Z,99055.03
2023-02-11T03:59:22.730Z,99050.46
2023-02-11T04:01:54.021Z,99054.63
2023-02-11T04:04:23.920Z,99050.30
2023-02-11T04:06:56.015Z,99045.84
2023-02-11T04:09:25.897Z,99040.31
2023-02-11T04:11:55.736Z,99038.55
2023-02-11T04:14:25.899Z,99037.73
2023-02-11T04:16:55.753Z,99038.20
2023-02-11T04:19:25.610Z,99040.94
2023-02-11T04:21:55.551Z,99043.39
2023-02-11T04:24:25.401Z,99052.14
2023-02-11T04:26:55.366Z,99048.55
2023-02-11T04:29:25.310Z,99045.23
2023-02-11T04:31:55.241Z,99044.91
2023-02-11T04:34:25.588Z,99045.45
2023-02-11T04:36:55.630Z,99041.00
2023-02-11T04:39:25.501Z,99045.31
2023-02-11T04:41:55.420Z,99046.94
2023-02-11T04:44:25.326Z,99038.13
2023-02-11T04:46:55.287Z,99035.86
2023-02-11T04:49:26.483Z,99033.89
2023-02-11T04:52:00.125Z,99034.36
2023-02-11T04:54:30.259Z,99045.20
2023-02-11T04:57:02.428Z,99047.33
2023-02-11T04:59:32.548Z,99042.26
2023-02-11T05:02:03.440Z,99042.19
2023-02-11T05:04:33.566Z,99049.78
2023-02-11T05:07:04.575Z,99043.73
2023-02-11T05:09:34.617Z,99047.23
2023-02-11T05:12:05.731Z,99043.28
2023-02-11T05:14:36.228Z,99046.27
2023-02-11T05:17:06.078Z,99044.82
2023-02-11T05:19:36.411Z,99042.30
2023-02-11T05:22:06.322Z,99043.60
2023-02-11T05:24:36.190Z,99038.06
2023-02-11T05:27:06.067Z,99034.97
2023-02-11T05:29:35.979Z,99030.51
2023-02-11T05:32:06.049Z,99040.00
2023-02-11T05:34:35.900Z,99033.09
2023-02-11T05:37:08.244Z,99029.75
2023-02-11T05:39:38.264Z,99031.37
2023-02-11T05:42:08.182Z,99026.88
2023-02-11T05:44:38.097Z,99035.00
2023-02-11T05:47:09.255Z,99032.52
2023-02-11T05:49:39.122Z,99029.70
2023-02-11T05:52:09.054Z,99029.09
2023-02-11T05:54:38.916Z,99018.63
2023-02-11T05:57:08.796Z,99030.02
2023-02-11T05:59:38.644Z,99028.58
2023-02-11T06:02:08.837Z,99027.33
2023-02-11T06:04:38.937Z,99030.84
2023-02-11T06:07:08.828Z,99040.83
2023-02-11T06:09:39.262Z,99043.19
2023-02-11T06:12:09.456Z,99042.08
2023-02-11T06:14:39.338Z,99038.73
2023-02-11T06:17:09.196Z,99035.09
2023-02-11T06:19:39.233Z,99034.19
2023-02-11T06:22:09.090Z,99037.34
2023-02-11T06:24:59.878Z,99032.59
2023-02-11T06:27:10.792Z,99033.34
2023-02-11T06:29:40.631Z,99033.80
2023-02-11T06:32:28.146Z,99036.45
2023-02-11T06:34:42.201Z,99034.47
2023-02-11T06:37:12.082Z,99036.29
2023-02-11T06:39:41.999Z,99036.75
2023-02-11T06:42:12.041Z,99036.12
2023-02-11T06:44:42.041Z,99029.76
2023-02-11T06:47:12.057Z,99035.14
2023-02-11T06:49:41.898Z,99034.23
2023-02-11T06:52:11.809Z,99030.05
2023-02-11T06:54:41.711Z,99026.42
2023-02-11T06:57:11.578Z,99027.91
2023-02-11T06:59:41.601Z,99025.42
2023-02-11T07:02:14.584Z,99020.17
2023-02-11T07:04:44.767Z,99025.80
2023-02-11T07:07:14.699Z,99020.44
2023-02-11T07:09:44.679Z,99019.81
2023-02-11T07:12:14.630Z,99019.73
2023-02-11T07:14:44.543Z,99029.81
2023-02-11T07:17:14.387Z,99028.70
2023-02-11T07:19:44.309Z,99016.17
2023-02-11T07:22:14.288Z,99023.62
2023-02-11T07:24:44.297Z,99017.09
2023-02-11T07:27:14.240Z,99011.72
2023-02-11T07:29:46.086Z,99012.03
2023-02-11T07:32:18.914Z,99011.30
2023-02-11T07:34:49.406Z,99010.55
2023-02-11T07:37:19.446Z,99022.91
2023-02-11T07:39:49.279Z,99026.25
2023-02-11T07:42:19.133Z,99027.70
2023-02-11T07:44:50.602Z,99038.38
2023-02-11T07:47:22.954Z,99035.73
2023-02-11T07:49:56.113Z,99036.88
2023-02-11T07:52:24.393Z,99039.69
2023-02-11T07:54:54.336Z,99034.52
2023-02-11T07:57:24.231Z,99038.41
2023-02-11T07:59:54.742Z,99031.88
2023-02-11T08:02:24.894Z,99037.41
2023-02-11T08:04:54.863Z,99033.11
2023-02-11T08:07:24.728Z,99020.91
2023-02-11T08:09:55.913Z,99018.17
2023-02-11T08:12:28.020Z,99016.73
2023-02-11T08:14:57.998Z,99022.72
2023-02-11T08:17:27.873Z,99022.64
2023-02-11T08:19:57.822Z,99016.86
2023-02-11T08:22:29.174Z,99017.11
2023-02-11T08:25:02.012Z,99014.05
2023-02-11T08:27:33.408Z,99015.34
2023-02-11T08:30:04.066Z,99009.30
2023-02-11T08:32:39.266Z,99014.13
2023-02-11T08:35:09.631Z,99009.42
2023-02-11T08:37:39.473Z,99007.77
2023-02-11T08:40:09.751Z,99010.70
2023-02-11T08:42:39.672Z,99010.63
2023-02-11T08:45:11.151Z,99014.64
2023-02-11T08:47:41.306Z,99014.02
2023-02-11T08:50:11.546Z,99015.17
2023-02-11T08:52:43.691Z,99015.17
2023-02-11T08:55:13.575Z,99015.47
2023-02-11T08:57:43.690Z,99010.95
2023-02-11T09:00:14.302Z,99013.44
2023-02-11T09:02:44.196Z,99010.80
2023-02-11T09:05:14.191Z,99014.34
2023-02-11T09:07:44.088Z,99011.70
2023-02-11T09:10:13.926Z,99009.80
2023-02-11T09:12:43.924Z,99003.84
2023-02-11T09:15:13.896Z,99002.52
2023-02-11T09:17:43.735Z,98998.22
2023-02-11T09:20:13.701Z,98993.05
2023-02-11T09:22:46.232Z,98995.35
2023-02-11T09:25:16.126Z,98991.55
2023-02-11T09:27:46.067Z,98985.02
2023-02-11T09:30:16.059Z,98984.56
2023-02-11T09:32:45.880Z,98978.89
2023-02-11T09:35:15.833Z,98975.94
2023-02-11T09:37:45.746Z,98980.63
2023-02-11T09:40:18.110Z,98978.50
2023-02-11T09:42:50.729Z,98972.29
2023-02-11T09:45:25.119Z,98969.93
2023-02-11T09:47:57.923Z,98973.48
2023-02-11T09:50:51.842Z,98972.45
2023-02-11T09:53:31.801Z,98975.09
2023-02-11T09:56:03.270Z,98975.85
2023-02-11T09:58:35.649Z,98965.92
2023-02-11T10:01:38.045Z,98963.12
2023-02-11T10:04:25.752Z,98967.75
2023-02-11T10:07:02.119Z,98969.63
2023-02-11T10:09:37.744Z,98955.68
2023-02-11T10:12:29.857Z,98952.88
2023-02-11T10:15:35.350Z,98950.39
2023-02-11T10:18:28.814Z,98948.95
2023-02-11T10:21:20.878Z,98954.01
2023-02-11T10:23:53.126Z,98958.64
2023-02-11T10:26:23.053Z,98954.47
2023-02-11T10:28:54.415Z,98947.03
2023-02-11T10:31:32.346Z,98946.73
2023-02-11T10:34:07.793Z,98938.19
2023-02-11T10:36:38.756Z,98936.50
2023-02-11T10:39:17.073Z,98938.31
2023-02-11T10:41:49.478Z,98939.06
2023-02-11T10:44:34.126Z,98934.39
2023-02-11T10:47:13.097Z,98935.11
2023-02-11T10:49:44.538Z,98938.58
2023-02-11T10:52:28.248Z,98934.95
2023-02-11T10:55:09.621Z,98935.70
2023-02-11T10:57:43.459Z,98938.67
2023-02-11T11:00:38.592Z,98937.77
2023-02-11T11:03:20.071Z,98937.68
2023-02-11T11:05:58.571Z,98938.19
2023-02-11T11:08:39.767Z,98933.72
2023-02-11T11:11:11.325Z,98927.64
2023-02-11T11:13:44.191Z,98937.65
2023-02-11T11:16:19.742Z,98934.30
2023-02-11T11:18:51.032Z,98934.76
2023-02-11T11:21:32.772Z,98934.17
2023-02-11T11:24:04.023Z,98932.19
2023-02-11T11:26:45.193Z,98935.95
2023-02-11T11:29:18.002Z,98936.41
2023-02-11T11:31:58.542Z,98935.82
2023-02-11T11:34:35.361Z,98943.39
2023-02-11T11:37:14.059Z,98949.05
2023-02-11T11:39:45.332Z,98955.19
2023-02-11T11:42:29.132Z,98960.02
2023-02-11T11:45:01.106Z,98961.39
2023-02-11T11:47:53.105Z,98965.23
2023-02-11T11:50:31.834Z,98961.02
2023-02-11T11:53:22.373Z,98973.91
2023-02-11T11:56:05.938Z,98965.48
2023-02-11T11:58:37.655Z,98967.94
2023-02-11T12:01:38.664Z,98971.13
2023-02-11T12:04:27.455Z,98970.01
2023-02-11T12:07:28.508Z,98967.52
2023-02-11T12:10:15.822Z,98965.58
2023-02-11T12:13:04.449Z,98961.22
2023-02-11T12:16:01.217Z,98970.47
2023-02-11T12:18:59.252Z,98969.34
2023-02-11T12:21:37.488Z,98972.27
2023-02-11T12:24:17.393Z,98981.52
2023-02-11T12:27:08.540Z,98953.47
2023-02-11T12:29:41.116Z,98953.47
2023-02-11T12:32:19.815Z,98970.45
2023-02-11T12:35:16.575Z,98971.50
2023-02-11T12:38:22.402Z,98968.48
2023-02-11T12:41:10.988Z,98959.65
2023-02-11T12:43:41.663Z,98958.42
2023-02-11T12:46:29.158Z,98953.86
2023-02-11T12:49:11.032Z,98958.89
2023-02-11T12:51:46.247Z,98961.16
2023-02-11T12:54:37.013Z,98959.60
2023-02-11T12:57:18.352Z,98969.59
2023-02-11T13:00:02.634Z,98978.83
2023-02-11T13:03:11.288Z,98975.47
2023-02-11T13:05:45.242Z,98976.98
2023-02-11T13:08:26.432Z,98984.77
2023-02-11T13:11:01.000Z,98989.77
2023-02-11T13:13:35.621Z,98994.25
2023-02-11T13:16:10.656Z,98992.09
2023-02-11T13:19:04.569Z,98999.86
2023-02-11T13:21:37.690Z,98996.97
2023-02-11T13:24:37.387Z,98982.34
2023-02-11T13:27:34.156Z,98993.13
2023-02-11T13:30:21.288Z,98988.55
2023-02-11T13:33:01.616Z,98997.65
2023-02-11T13:35:39.425Z,98987.88
2023-02-11T13:38:20.095Z,98989.86
2023-02-11T13:41:01.564Z,98992.11
2023-02-11T13:43:31.485Z,98994.91
2023-02-11T13:46:06.385Z,99010.56
2023-02-11T13:48:50.769Z,99021.35
2023-02-11T13:51:23.489Z,99013.77
2023-02-11T13:53:58.172Z,99018.84
2023-02-11T13:56:35.587Z,99017.84
2023-02-11T13:59:08.798Z,99006.09
2023-02-11T14:02:19.937Z,99013.55
2023-02-11T14:05:22.108Z,99014.44
2023-02-11T14:08:32.957Z,99016.41
2023-02-11T14:11:12.498Z,99006.34
2023-02-11T14:13:54.082Z,99006.66
2023-02-11T14:16:37.085Z,99011.69
2023-02-11T14:19:00.517Z,99021.01
2023-02-11T14:21:35.288Z,99025.78
2023-02-11T14:24:11.177Z,99026.95
2023-02-11T14:26:49.921Z,99028.16
2023-02-11T14:29:34.282Z,99030.41
2023-02-11T14:32:37.816Z,99018.37
2023-02-11T14:35:19.660Z,99018.69
2023-02-11T14:38:01.182Z,99019.86
2023-02-11T14:40:36.546Z,99029.21
2023-02-11T14:43:24.890Z,99032.01
2023-02-11T14:45:56.508Z,99030.92
2023-02-11T14:48:30.077Z,99035.09
2023-02-11T14:51:15.665Z,99038.43
2023-02-11T14:53:49.872Z,99037.12
2023-02-11T14:56:26.053Z,99037.72
2023-02-11T14:58:56.029Z,99038.28
2023-02-11T15:01:37.392Z,99035.32
2023-02-11T15:04:09.310Z,99030.98
2023-02-11T15:06:40.926Z,99027.44
2023-02-11T15:09:18.750Z,99033.80
2023-02-11T15:11:49.675Z,99040.97
2023-02-11T15:14:25.443Z,99029.23
2023-02-11T15:16:57.513Z,99026.78
2023-02-11T15:19:33.014Z,99026.02
2023-02-11T15:22:01.596Z,99028.80
2023-02-11T15:24:38.950Z,99030.73
2023-02-11T15:27:14.988Z,99029.69
2023-02-11T15:29:46.346Z,99027.00
2023-02-11T15:32:18.075Z,99032.91
2023-02-11T15:34:48.207Z,99031.12
2023-02-11T15:37:23.037Z,99031.92
2023-02-11T15:39:52.880Z,99023.33
2023-02-11T15:42:50.747Z,99017.28
2023-02-11T15:45:21.363Z,99017.74
2023-02-11T15:47:52.831Z,99010.84
2023-02-11T15:50:25.095Z,99014.38
2023-02-11T15:52:54.992Z,99016.29
2023-02-11T15:55:25.406Z,99021.39
2023-02-11T15:57:59.982Z,99018.05
2023-02-11T16:00:34.729Z,99018.00
2023-02-11T16:03:05.294Z,99025.10
2023-02-11T16:05:39.065Z,99019.57
2023-02-11T16:08:30.514Z,99012.38
2023-02-11T16:11:03.561Z,99015.00
2023-02-11T16:13:35.657Z,99014.38
2023-02-11T16:16:06.940Z,99007.95
2023-02-11T16:18:42.464Z,99002.93
2023-02-11T16:21:17.590Z,98995.15
2023-02-11T16:23:52.492Z,98994.18
2023-02-11T16:26:33.748Z,98995.99
2023-02-11T16:29:15.155Z,98997.78
2023-02-11T16:31:49.193Z,98994.72
2023-02-11T16:34:21.992Z,98992.96
2023-02-11T16:36:52.019Z,98991.40
2023-02-11T16:39:27.644Z,98986.83
2023-02-11T16:41:57.989Z,98978.13
2023-02-11T16:44:27.832Z,98981.98
2023-02-11T16:46:57.772Z,98978.52
2023-02-11T16:49:29.797Z,98981.55
2023-02-11T16:52:03.046Z,98977.13
2023-02-11T16:54:33.323Z,98973.73
2023-02-11T16:57:05.973Z,98971.21
2023-02-11T16:59:36.616Z,98970.17
2023-02-11T17:02:08.986Z,98977.00
2023-02-11T17:04:38.813Z,98970.09
2023-02-11T17:07:09.377Z,98967.44
2023-02-11T17:09:39.239Z,98955.68
2023-02-11T17:12:09.295Z,98950.98
2023-02-11T17:14:39.182Z,98956.36
2023-02-11T17:17:09.054Z,98958.41
2023-02-11T17:19:38.872Z,98957.41
2023-02-11T17:22:08.803Z,98951.73
2023-02-11T17:24:38.634Z,98955.04
2023-02-11T17:27:08.453Z,98944.73
2023-02-11T17:29:38.340Z,98943.69
2023-02-11T17:32:09.641Z,98939.88
2023-02-11T17:34:39.610Z,98933.87
2023-02-11T17:37:10.866Z,98924.86
2023-02-11T17:39:40.976Z,98928.59
2023-02-11T17:42:12.379Z,98929.73
2023-02-11T17:44:42.264Z,98924.98
2023-02-11T17:47:12.102Z,98914.52
2023-02-11T17:49:41.956Z,98915.72
2023-02-11T17:52:12.118Z,98906.48
2023-02-11T17:54:41.961Z,98900.87
2023-02-11T17:57:12.912Z,98889.88
2023-02-11T17:59:42.840Z,98859.61
2023-02-11T18:02:13.883Z,98859.61
2023-02-11T18:04:43.741Z,98874.31
2023-02-11T18:07:15.812Z,98872.58
2023-02-11T18:09:45.693Z,98865.98
2023-02-11T18:12:15.525Z,98864.78
2023-02-11T18:14:45.475Z,98862.19
2023-02-11T18:17:15.294Z,98854.46
2023-02-11T18:19:45.348Z,98854.92
2023-02-11T18:22:15.512Z,98847.20
2023-02-11T18:24:45.327Z,98841.67
2023-02-11T18:27:15.150Z,98842.95
2023-02-11T18:29:45.063Z,98836.30
2023-02-11T18:32:15.291Z,98834.00
2023-02-11T18:34:45.107Z,98832.88
2023-02-11T18:37:15.098Z,98826.27
2023-02-11T18:39:45.185Z,98813.92
2023-02-11T18:42:15.030Z,98802.36
2023-02-11T18:44:44.913Z,98793.56
2023-02-11T18:47:14.757Z,98784.39
2023-02-11T18:49:44.599Z,98780.09
2023-02-11T18:52:14.500Z,98776.00
2023-02-11T18:54:44.308Z,98769.72
2023-02-11T18:57:14.129Z,98765.63
2023-02-11T18:59:44.600Z,98765.39
2023-02-11T19:02:14.398Z,98755.92
2023-02-11T19:04:44.211Z,98748.50
2023-02-11T19:07:14.252Z,98742.67
2023-02-11T19:09:44.104Z,98730.95
2023-02-11T19:12:13.942Z,98738.45
2023-02-11T19:14:43.827Z,98719.12
2023-02-11T19:17:13.980Z,98710.41
2023-02-11T19:19:43.830Z,98716.25
2023-02-11T19:22:13.742Z,98701.08
2023-02-11T19:24:43.577Z,98700.63
2023-02-11T19:27:13.430Z,98700.41
2023-02-11T19:29:43.457Z,98697.75
2023-02-11T19:32:13.516Z,98699.19
2023-02-11T19:34:43.361Z,98695.99
2023-02-11T19:37:16.704Z,98691.97
2023-02-11T19:39:46.556Z,98683.86
2023-02-11T19:42:16.539Z,98678.48
2023-02-11T19:44:46.473Z,98675.50
2023-02-11T19:47:16.351Z,98663.84
2023-02-11T19:49:46.180Z,98651.02
2023-02-11T19:52:16.393Z,98647.00
2023-02-11T19:54:46.433Z,98635.88
2023-02-11T19:57:16.306Z,98637.81
2023-02-11T19:59:46.311Z,98635.94
2023-02-11T20:02:16.160Z,98633.50
2023-02-11T20:04:46.992Z,98635.15
2023-02-11T20:07:16.988Z,98626.20
2023-02-11T20:09:50.335Z,98617.27
2023-02-11T20:12:20.218Z,98614.86
2023-02-11T20:14:50.112Z,98619.55
2023-02-11T20:17:19.957Z,98610.00
2023-02-11T20:19:49.769Z,98611.97
2023-02-11T20:22:19.670Z,98607.34
2023-02-11T20:24:49.531Z,98603.03
2023-02-11T20:27:20.184Z,98604.68
2023-02-11T20:29:50.193Z,98596.78
2023-02-11T20:32:20.222Z,98597.09
2023-02-11T20:34:50.100Z,98591.39
2023-02-11T20:37:19.970Z,98588.44
2023-02-11T20:39:51.060Z,98587.07
2023-02-11T20:42:21.081Z,98576.44
2023-02-11T20:44:53.415Z,98572.66
2023-02-11T20:47:23.457Z,98576.51
2023-02-11T20:49:53.356Z,98570.51
2023-02-11T20:52:23.746Z,98564.00
2023-02-11T20:54:53.584Z,98557.18
2023-02-11T20:57:23.439Z,98560.48
2023-02-11T20:59:53.359Z,98562.16
2023-02-11T21:02:24.854Z,98561.34
2023-02-11T21:04:54.681Z,98559.44
2023-02-11T21:07:26.954Z,98559.72
2023-02-11T21:09:56.798Z,98561.39
2023-02-11T21:12:27.202Z,98558.13
2023-02-11T21:14:57.954Z,98557.88
2023-02-11T21:17:28.236Z,98562.28
2023-02-11T21:19:58.186Z,98554.92
2023-02-11T21:22:28.108Z,98553.30
2023-02-11T21:24:57.979Z,98548.16
2023-02-11T21:27:29.190Z,98544.35
2023-02-11T21:29:59.088Z,98550.63
2023-02-11T21:32:28.965Z,98556.95
2023-02-11T21:35:01.873Z,98553.74
2023-02-11T21:37:30.689Z,98553.20
2023-02-11T21:40:00.557Z,98556.75
2023-02-11T21:42:30.472Z,98557.35
2023-02-11T21:45:00.421Z,98551.36
2023-02-11T21:47:30.491Z,98551.36
2023-02-11T21:50:00.412Z,98546.17
2023-02-11T21:52:30.540Z,98546.23
2023-02-11T21:55:00.414Z,98543.51
2023-02-11T21:57:30.348Z,98540.02
2023-02-11T22:00:02.597Z,98541.98
2023-02-11T22:02:32.535Z,98533.53
2023-02-11T22:05:02.521Z,98536.58
2023-02-11T22:07:34.842Z,98531.17
2023-02-11T22:10:05.356Z,98531.17
2023-02-11T22:12:36.277Z,98527.08
2023-02-11T22:15:06.535Z,98528.50
2023-02-11T22:17:37.398Z,98523.92
2023-02-11T22:20:08.726Z,98523.92
2023-02-11T22:22:38.645Z,98524.75
2023-02-11T22:25:08.936Z,98529.98
2023-02-11T22:27:38.752Z,98524.27
2023-02-11T22:30:09.837Z,98524.03
2023-02-11T22:32:39.864Z,98516.67
2023-02-11T22:35:10.418Z,98525.73
2023-02-11T22:37:40.464Z,98520.88
2023-02-11T22:40:13.534Z,98512.68
2023-02-11T22:42:43.349Z,98509.69
2023-02-11T22:45:13.292Z,98509.46
2023-02-11T22:47:43.187Z,98500.50
2023-02-11T22:50:13.366Z,98502.47
2023-02-11T22:52:43.282Z,98498.14
2023-02-11T22:55:13.144Z,98497.91
2023-02-11T22:57:43.068Z,98494.09
2023-02-11T23:00:14.180Z,98499.30
2023-02-11T23:02:44.174Z,98501.80
2023-02-11T23:05:14.161Z,98497.98
2023-02-11T23:07:44.099Z,98501.03
2023-02-11T23:10:13.972Z,98507.60
2023-02-11T23:12:43.705Z,98507.09
2023-02-11T23:15:13.569Z,98507.14
2023-02-11T23:17:43.441Z,98502.78
2023-02-11T23:20:14.031Z,98496.78
2023-02-11T23:22:43.944Z,98499.51
2023-02-11T23:25:13.773Z,98489.72
2023-02-11T23:27:43.603Z,98484.53
2023-02-11T23:30:14.297Z,98483.48
2023-02-11T23:32:44.242Z,98484.59
2023-02-11T23:35:15.435Z,98476.39
2023-02-11T23:37:45.384Z,98479.17
2023-02-11T23:40:15.771Z,98478.63
2023-02-11T23:42:46.282Z,98482.50
2023-02-11T23:45:16.295Z,98472.16
2023-02-11T23:47:46.112Z,98471.08
2023-02-11T23:50:15.976Z,98463.16
2023-02-11T23:52:45.949Z,98461.28
2023-02-11T23:55:15.808Z,98469.50
2023-02-11T23:57:45.675Z,98458.57
